Time;durP1;ratioP1;P1;durP2;ratioP2;P2;SDS_P1;SDS_P2;PMS_P1;PMS_P2;Temp;Humidity;BMP_temperature;BMP_pressure;BME280_temperature;BME280_humidity;BME280_pressure;Samples;Min_cycle;Max_cycle;Signal;HPM_P1;HPM_P2
2024/03/09 00:00:38;;;;;;;28.90;18.97;;;5.40;99.90;;;;;;5067709;28;20236;-66
2024/03/09 00:03:07;;;;;;;30.10;18.57;;;5.30;99.90;;;;;;5063800;28;20195;-66
2024/03/09 00:05:34;;;;;;;31.73;19.47;;;5.30;99.90;;;;;;5066254;28;20207;-64
2024/03/09 00:08:04;;;;;;;30.33;19.33;;;5.30;99.90;;;;;;5072127;28;20204;-64
2024/03/09 00:10:31;;;;;;;27.70;17.67;;;5.30;99.90;;;;;;5072464;28;20707;-64
2024/03/09 00:12:59;;;;;;;28.63;16.77;;;5.40;99.90;;;;;;5071789;28;20206;-64
2024/03/09 00:15:28;;;;;;;33.63;19.70;;;5.50;99.90;;;;;;5069682;28;20252;-64
2024/03/09 00:17:57;;;;;;;32.50;19.53;;;5.30;99.90;;;;;;5072326;28;20212;-64
2024/03/09 00:20:27;;;;;;;31.07;19.57;;;5.30;99.90;;;;;;5072155;28;20231;-64
2024/03/09 00:22:57;;;;;;;27.47;17.80;;;5.20;99.90;;;;;;5063192;28;20207;-64
2024/03/09 00:25:28;;;;;;;32.73;19.50;;;5.20;99.90;;;;;;5069003;28;20201;-64
2024/03/09 00:27:56;;;;;;;30.37;18.77;;;5.30;99.90;;;;;;5071021;28;20196;-64
2024/03/09 00:30:29;;;;;;;28.83;19.07;;;5.20;99.90;;;;;;5069353;28;20261;-64
2024/03/09 00:32:59;;;;;;;28.80;18.00;;;5.30;99.90;;;;;;5071059;28;20215;-64
2024/03/09 00:35:27;;;;;;;29.13;18.37;;;5.30;99.90;;;;;;5069589;28;20237;-64
2024/03/09 00:37:55;;;;;;;25.73;17.67;;;5.30;99.90;;;;;;5071308;28;20287;-65
2024/03/09 00:40:23;;;;;;;30.47;18.50;;;5.40;99.90;;;;;;5070850;28;20263;-64
2024/03/09 00:42:51;;;;;;;28.93;18.93;;;5.40;99.90;;;;;;5066867;28;20206;-63
2024/03/09 00:45:18;;;;;;;28.17;17.40;;;5.40;99.90;;;;;;5069473;28;20588;-64
2024/03/09 00:47:47;;;;;;;31.50;18.63;;;5.40;99.90;;;;;;5071245;28;20290;-64
2024/03/09 00:50:15;;;;;;;29.43;18.10;;;5.30;99.90;;;;;;5071275;28;20206;-64
2024/03/09 00:52:46;;;;;;;26.77;18.03;;;5.40;99.90;;;;;;5071338;28;20207;-64
2024/03/09 00:55:15;;;;;;;27.93;15.93;;;5.30;99.90;;;;;;5070280;28;21128;-64
2024/03/09 00:57:44;;;;;;;30.40;18.70;;;5.40;99.90;;;;;;5068993;28;20288;-65
2024/03/09 01:00:15;;;;;;;29.07;17.77;;;;;;;;;;5071056;28;20204;-67
2024/03/09 01:02:43;;;;;;;28.23;18.07;;;5.40;99.90;;;;;;5071238;28;20644;-64
2024/03/09 01:05:11;;;;;;;28.20;17.40;;;5.50;99.90;;;;;;5070491;28;20749;-65
2024/03/09 01:07:42;;;;;;;26.27;18.27;;;5.40;99.90;;;;;;5070873;28;20204;-65
2024/03/09 01:10:10;;;;;;;30.00;17.53;;;5.40;99.90;;;;;;5070179;28;20208;-65
2024/03/09 01:12:37;;;;;;;33.60;19.03;;;5.30;99.90;;;;;;5071045;28;20624;-64
2024/03/09 01:15:06;;;;;;;31.10;19.13;;;5.20;99.90;;;;;;5070381;28;20202;-65
2024/03/09 01:17:35;;;;;;;32.27;18.43;;;5.30;99.90;;;;;;5070790;28;20210;-65
2024/03/09 01:20:05;;;;;;;25.60;17.33;;;5.30;99.90;;;;;;5031082;28;1130483;-64
2024/03/09 01:22:33;;;;;;;28.67;17.67;;;5.30;99.90;;;;;;5068086;28;20196;-64
2024/03/09 01:25:00;;;;;;;27.43;16.87;;;5.20;99.90;;;;;;5075009;28;20204;-65
2024/03/09 01:27:27;;;;;;;26.63;17.00;;;5.10;99.90;;;;;;5075119;28;20202;-65
2024/03/09 01:29:59;;;;;;;30.97;18.63;;;5.00;99.90;;;;;;5073595;28;20206;-65
2024/03/09 01:32:27;;;;;;;27.30;18.30;;;4.90;99.90;;;;;;5074673;28;20208;-65
2024/03/09 01:34:56;;;;;;;27.03;17.63;;;5.00;99.90;;;;;;5071373;28;20203;-64
2024/03/09 01:37:23;;;;;;;27.00;16.97;;;5.00;99.90;;;;;;5075517;28;20205;-65
2024/03/09 01:39:50;;;;;;;31.20;17.50;;;4.90;99.90;;;;;;5075503;28;20206;-65
2024/03/09 01:42:18;;;;;;;23.27;15.67;;;;;;;;;;5077648;28;20230;-64
2024/03/09 01:44:47;;;;;;;30.50;17.93;;;;;;;;;;5075324;28;20692;-64
2024/03/09 01:47:16;;;;;;;29.53;17.63;;;4.60;99.90;;;;;;5073032;28;20201;-64
2024/03/09 01:49:45;;;;;;;29.20;17.97;;;4.80;99.90;;;;;;5075022;28;20202;-66
2024/03/09 01:52:14;;;;;;;27.67;17.17;;;4.30;99.90;;;;;;5075066;28;20597;-67
2024/03/09 01:54:42;;;;;;;24.33;14.83;;;;;;;;;;5078093;28;20253;-65
2024/03/09 01:57:13;;;;;;;27.83;17.17;;;4.50;99.90;;;;;;5054297;28;20218;-64
2024/03/09 01:59:41;;;;;;;27.60;16.37;;;;;;;;;;5068605;28;20289;-67
2024/03/09 02:02:09;;;;;;;28.33;17.03;;;4.60;99.90;;;;;;5075021;28;20276;-64
2024/03/09 02:04:37;;;;;;;30.87;18.77;;;4.50;99.90;;;;;;5073664;28;20195;-67
2024/03/09 02:07:05;;;;;;;30.70;18.37;;;;;;;;;;5074203;28;20586;-64
2024/03/09 02:09:34;;;;;;;28.10;16.23;;;4.50;99.90;;;;;;5075068;28;20230;-64
2024/03/09 02:12:05;;;;;;;29.77;17.37;;;4.50;99.90;;;;;;5079866;28;20256;-66
2024/03/09 02:14:33;;;;;;;31.23;18.00;;;;;;;;;;5074817;28;20647;-67
2024/03/09 02:17:07;;;;;;;32.80;18.00;;;;;;;;;;5074131;28;20291;-67
2024/03/09 02:19:35;;;;;;;29.00;20.30;;;4.50;99.90;;;;;;5074907;28;20205;-66
2024/03/09 02:22:02;;;;;;;27.90;17.57;;;4.40;99.90;;;;;;5056034;28;20247;-67
2024/03/09 02:24:34;;;;;;;31.93;18.47;;;4.40;99.90;;;;;;5068824;28;20663;-64
2024/03/09 02:27:04;;;;;;;39.13;19.13;;;4.40;99.90;;;;;;5073342;28;20658;-64
2024/03/09 02:29:31;;;;;;;34.87;18.37;;;4.40;99.90;;;;;;5074400;28;20256;-66
2024/03/09 02:31:58;;;;;;;33.70;19.83;;;4.50;99.90;;;;;;5074328;28;20219;-67
2024/03/09 02:34:25;;;;;;;30.50;19.00;;;4.60;99.90;;;;;;5073300;28;20276;-67
2024/03/09 02:36:52;;;;;;;32.83;17.83;;;4.50;99.90;;;;;;5071981;28;20633;-65
2024/03/09 02:39:20;;;;;;;29.93;18.73;;;4.40;99.90;;;;;;5072633;28;20207;-65
2024/03/09 02:41:47;;;;;;;29.13;18.13;;;;;;;;;;5074028;28;20278;-65
2024/03/09 02:44:17;;;;;;;30.93;18.43;;;2.80;99.90;;;;;;5074425;28;20213;-65
2024/03/09 02:46:44;;;;;;;29.47;19.23;;;;;;;;;;5073452;28;20260;-65
2024/03/09 02:49:11;;;;;;;32.37;18.80;;;4.20;99.90;;;;;;5072256;28;20199;-65
2024/03/09 02:51:38;;;;;;;30.10;18.53;;;;;;;;;;5073909;28;20241;-64
2024/03/09 02:54:05;;;;;;;30.93;19.07;;;;;;;;;;5061478;28;20207;-65
2024/03/09 02:56:33;;;;;;;29.10;18.83;;;;;;;;;;5063668;28;20283;-65
2024/03/09 02:59:00;;;;;;;31.00;16.73;;;;;;;;;;5073458;28;20230;-65
2024/03/09 03:01:29;;;;;;;33.10;19.87;;;;;;;;;;5073493;28;20748;-65
2024/03/09 03:03:58;;;;;;;38.60;20.93;;;4.10;99.90;;;;;;5072891;28;20199;-65
2024/03/09 03:06:28;;;;;;;31.13;17.67;;;4.30;99.90;;;;;;5072862;28;20219;-65
2024/03/09 03:08:58;;;;;;;27.57;17.97;;;;;;;;;;5074898;28;20200;-65
2024/03/09 03:11:27;;;;;;;29.63;19.03;;;;;;;;;;5071263;28;20230;-65
2024/03/09 03:13:55;;;;;;;29.90;19.47;;;4.10;99.90;;;;;;5072916;28;20253;-65
2024/03/09 03:16:26;;;;;;;28.87;17.63;;;4.10;99.90;;;;;;5072691;28;20214;-65
2024/03/09 03:18:54;;;;;;;29.13;17.90;;;4.20;99.90;;;;;;5065646;28;20290;-67
2024/03/09 03:21:21;;;;;;;28.50;17.00;;;4.10;99.90;;;;;;5073285;28;20233;-65
2024/03/09 03:23:48;;;;;;;31.33;18.83;;;4.10;99.90;;;;;;5073439;28;20216;-65
2024/03/09 03:26:16;;;;;;;25.90;17.27;;;4.10;99.90;;;;;;5066453;28;20306;-65
2024/03/09 03:28:44;;;;;;;33.17;19.37;;;4.00;99.90;;;;;;5065129;28;20215;-65
2024/03/09 03:31:12;;;;;;;30.03;17.87;;;;;;;;;;5073013;28;20264;-65
2024/03/09 03:33:39;;;;;;;26.40;16.53;;;4.10;99.90;;;;;;5070666;28;20202;-65
2024/03/09 03:36:09;;;;;;;25.83;17.33;;;4.00;99.90;;;;;;5072161;28;20203;-64
2024/03/09 03:38:36;;;;;;;30.93;17.70;;;4.00;99.90;;;;;;5070903;28;20210;-64
2024/03/09 03:41:06;;;;;;;30.17;18.53;;;4.00;99.90;;;;;;5072598;28;20773;-65
2024/03/09 03:43:33;;;;;;;25.80;14.73;;;4.00;99.90;;;;;;5070975;28;20234;-64
2024/03/09 03:46:01;;;;;;;27.37;17.57;;;3.80;99.90;;;;;;5065047;28;20208;-65
2024/03/09 03:48:29;;;;;;;27.93;17.30;;;3.80;99.90;;;;;;5066438;28;20200;-65
2024/03/09 03:50:56;;;;;;;25.57;16.70;;;3.80;99.90;;;;;;5070459;28;20268;-65
2024/03/09 03:53:25;;;;;;;25.20;17.87;;;3.60;99.90;;;;;;5072615;28;20213;-65
2024/03/09 03:55:52;;;;;;;25.60;18.30;;;3.70;99.90;;;;;;5071667;28;20330;-64
2024/03/09 03:58:19;;;;;;;29.37;17.67;;;3.60;99.90;;;;;;5072484;28;20392;-67
2024/03/09 04:00:47;;;;;;;30.60;19.03;;;;;;;;;;5069462;28;20289;-65
2024/03/09 04:03:16;;;;;;;27.73;15.53;;;;;;;;;;5072172;28;20313;-65
2024/03/09 04:05:44;;;;;;;23.73;16.03;;;;;;;;;;5071487;28;20219;-65
2024/03/09 04:08:11;;;;;;;24.83;15.87;;;;;;;;;;5072294;28;20228;-64
2024/03/09 04:10:42;;;;;;;27.67;16.13;;;3.50;99.90;;;;;;5072133;28;20254;-67
2024/03/09 04:13:11;;;;;;;28.30;18.00;;;3.40;99.90;;;;;;5072085;28;20199;-65
2024/03/09 04:15:38;;;;;;;24.50;16.23;;;3.40;99.90;;;;;;5070813;28;20294;-64
2024/03/09 04:18:06;;;;;;;30.47;17.70;;;3.30;99.90;;;;;;5072285;28;20272;-65
2024/03/09 04:20:34;;;;;;;27.07;17.17;;;3.30;99.90;;;;;;5072021;28;20238;-65
2024/03/09 04:23:03;;;;;;;25.83;16.37;;;3.20;99.90;;;;;;5071923;28;20275;-65
2024/03/09 04:25:32;;;;;;;28.73;17.67;;;;;;;;;;5071055;28;20205;-65
2024/03/09 04:28:01;;;;;;;25.70;16.27;;;3.00;99.90;;;;;;5066792;28;20753;-65
2024/03/09 04:30:29;;;;;;;23.77;16.23;;;3.00;99.90;;;;;;5054917;28;20223;-64
2024/03/09 04:32:56;;;;;;;31.43;16.87;;;3.00;99.90;;;;;;5058852;28;20211;-65
2024/03/09 04:35:24;;;;;;;29.67;17.87;;;3.00;99.90;;;;;;5070777;28;20203;-65
2024/03/09 04:37:52;;;;;;;28.43;19.07;;;3.00;99.90;;;;;;5063598;28;20200;-65
2024/03/09 04:40:20;;;;;;;31.23;18.00;;;3.10;99.90;;;;;;5092496;22;20325;-64
2024/03/09 04:42:48;;;;;;;31.87;18.77;;;2.90;99.90;;;;;;5076160;28;20232;-63
2024/03/09 04:45:22;;;;;;;29.87;17.83;;;;;;;;;;5083485;28;20561;-63
2024/03/09 04:47:50;;;;;;;26.23;16.33;;;3.00;99.90;;;;;;5091707;28;20198;-63
2024/03/09 04:50:19;;;;;;;25.90;16.33;;;2.80;99.90;;;;;;5086939;28;20257;-63
2024/03/09 04:52:48;;;;;;;25.13;16.10;;;2.90;99.90;;;;;;5076571;28;20199;-61
2024/03/09 04:55:16;;;;;;;28.90;17.60;;;3.00;99.90;;;;;;5070487;28;20288;-61
2024/03/09 04:57:43;;;;;;;25.37;16.50;;;2.90;99.90;;;;;;5068955;28;20647;-61
2024/03/09 05:00:14;;;;;;;24.60;16.17;;;2.80;99.90;;;;;;5070724;28;20226;-61
2024/03/09 05:02:47;;;;;;;25.90;15.93;;;2.80;99.90;;;;;;5081390;28;20329;-61
2024/03/09 05:05:17;;;;;;;29.17;18.10;;;2.70;99.90;;;;;;5090605;28;21175;-61
2024/03/09 05:07:48;;;;;;;27.17;17.23;;;2.80;99.90;;;;;;5072184;28;20199;-61
2024/03/09 05:10:17;;;;;;;27.07;16.60;;;2.70;99.90;;;;;;5091148;28;20652;-61
2024/03/09 05:12:50;;;;;;;24.60;15.43;;;2.50;99.90;;;;;;5091488;28;20303;-61
2024/03/09 05:15:17;;;;;;;23.20;15.87;;;2.50;99.90;;;;;;5070587;28;20210;-61
2024/03/09 05:17:44;;;;;;;28.57;18.63;;;;;;;;;;5071029;28;20291;-60
2024/03/09 05:20:20;;;;;;;24.53;17.23;;;2.40;99.90;;;;;;5070980;28;20692;-61
2024/03/09 05:22:48;;;;;;;24.40;16.23;;;2.50;99.90;;;;;;5075446;28;21348;-60
2024/03/09 05:25:15;;;;;;;26.47;15.80;;;2.50;99.90;;;;;;5090375;28;20214;-61
2024/03/09 05:27:44;;;;;;;22.77;14.90;;;2.70;99.90;;;;;;5081301;28;20207;-61
2024/03/09 05:30:15;;;;;;;25.93;14.23;;;2.70;99.90;;;;;;5073612;28;20222;-62
2024/03/09 05:32:49;;;;;;;25.03;15.60;;;2.50;99.90;;;;;;5069697;28;20195;-61
2024/03/09 05:35:17;;;;;;;22.03;14.10;;;2.70;99.90;;;;;;5085081;28;20566;-61
2024/03/09 05:37:44;;;;;;;24.67;14.67;;;2.40;99.90;;;;;;5090836;28;20197;-61
2024/03/09 05:40:13;;;;;;;24.60;15.53;;;2.50;99.90;;;;;;5079214;28;20234;-61
2024/03/09 05:42:43;;;;;;;27.23;14.60;;;2.80;99.90;;;;;;5072505;28;20227;-61
2024/03/09 05:45:15;;;;;;;22.33;14.50;;;2.70;99.90;;;;;;5068692;28;20206;-61
2024/03/09 05:47:47;;;;;;;21.53;14.97;;;2.70;99.90;;;;;;5071074;28;20664;-61
2024/03/09 05:50:15;;;;;;;24.13;14.93;;;2.40;99.90;;;;;;5083421;28;20306;-61
2024/03/09 05:52:44;;;;;;;26.17;15.07;;;2.50;99.90;;;;;;5082759;28;20603;-61
2024/03/09 05:55:11;;;;;;;29.07;15.53;;;2.50;99.90;;;;;;5075547;28;20199;-61
2024/03/09 05:57:39;;;;;;;28.60;16.20;;;2.60;99.90;;;;;;5070480;28;20206;-61
2024/03/09 06:00:08;;;;;;;29.33;17.67;;;2.60;99.90;;;;;;5070135;28;20299;-61
2024/03/09 06:02:39;;;;;;;28.33;17.20;;;2.70;99.90;;;;;;5073335;28;20215;-61
2024/03/09 06:05:07;;;;;;;23.67;15.03;;;2.80;99.90;;;;;;5067575;28;20737;-61
2024/03/09 06:07:37;;;;;;;27.17;15.07;;;2.80;99.90;;;;;;5078436;28;20203;-61
2024/03/09 06:10:07;;;;;;;22.93;15.17;;;2.80;99.90;;;;;;5065878;28;20220;-61
2024/03/09 06:12:34;;;;;;;24.40;14.53;;;3.00;99.90;;;;;;5065937;28;20667;-62
2024/03/09 06:15:03;;;;;;;22.43;12.70;;;3.10;99.90;;;;;;5081499;28;20261;-60
2024/03/09 06:17:30;;;;;;;21.20;13.80;;;3.20;99.90;;;;;;5082068;28;20697;-61
2024/03/09 06:19:58;;;;;;;15.93;11.00;;;3.20;99.90;;;;;;5074087;28;20223;-60
2024/03/09 06:22:25;;;;;;;21.57;11.77;;;3.30;99.90;;;;;;5071397;28;20306;-60
2024/03/09 06:24:52;;;;;;;17.27;10.40;;;3.40;99.90;;;;;;5071572;28;20201;-60
2024/03/09 06:27:21;;;;;;;15.47;10.57;;;3.50;99.90;;;;;;5069899;28;20219;-61
2024/03/09 06:29:49;;;;;;;15.37;10.93;;;3.70;99.90;;;;;;5070648;28;20219;-61
2024/03/09 06:32:16;;;;;;;15.23;11.43;;;3.80;99.90;;;;;;5073471;28;20284;-60
2024/03/09 06:34:44;;;;;;;13.57;9.87;;;3.80;99.90;;;;;;5079387;28;20203;-61
2024/03/09 06:37:11;;;;;;;13.17;9.27;;;3.90;99.90;;;;;;5072722;28;20234;-60
2024/03/09 06:39:38;;;;;;;18.17;11.43;;;4.00;99.90;;;;;;5069524;28;20236;-60
2024/03/09 06:42:08;;;;;;;14.43;9.97;;;4.30;99.90;;;;;;5076877;28;20201;-60
2024/03/09 06:44:37;;;;;;;12.33;9.37;;;5.10;99.90;;;;;;5074129;28;20202;-60
2024/03/09 06:47:06;;;;;;;14.83;9.73;;;5.30;99.90;;;;;;5066200;28;20282;-61
2024/03/09 06:49:35;;;;;;;16.40;9.27;;;5.30;99.90;;;;;;5081800;28;20779;-61
2024/03/09 06:52:02;;;;;;;13.43;9.13;;;5.10;99.90;;;;;;5073818;28;20199;-61
2024/03/09 06:54:29;;;;;;;15.00;8.17;;;4.90;99.90;;;;;;5073049;28;20204;-61
2024/03/09 06:56:56;;;;;;;11.70;8.60;;;4.80;99.90;;;;;;5070221;28;20286;-60
2024/03/09 06:59:24;;;;;;;15.03;9.00;;;5.40;99.90;;;;;;5073252;28;20226;-61
2024/03/09 07:01:57;;;;;;;13.53;9.10;;;6.00;99.90;;;;;;5072806;28;20206;-61
2024/03/09 07:04:25;;;;;;;13.43;10.57;;;6.50;99.90;;;;;;5066447;28;20195;-61
2024/03/09 07:06:53;;;;;;;10.77;7.57;;;7.00;99.90;;;;;;5071541;28;20253;-60
2024/03/09 07:09:20;;;;;;;15.07;9.57;;;7.20;99.90;;;;;;5082312;28;20575;-60
2024/03/09 07:11:47;;;;;;;13.13;9.43;;;7.30;99.90;;;;;;5072973;28;20278;-60
2024/03/09 07:14:14;;;;;;;13.80;8.90;;;7.90;99.90;;;;;;5078172;28;20197;-61
2024/03/09 07:16:42;;;;;;;8.50;6.97;;;7.80;99.90;;;;;;5070537;28;20212;-58
2024/03/09 07:19:10;;;;;;;6.90;5.33;;;8.00;99.90;;;;;;5070652;28;20245;-57
2024/03/09 07:21:39;;;;;;;6.57;4.60;;;8.40;99.90;;;;;;5062514;28;20236;-60
2024/03/09 07:24:07;;;;;;;6.03;5.33;;;8.50;99.90;;;;;;5069614;28;20217;-62
2024/03/09 07:26:35;;;;;;;6.20;5.00;;;8.30;99.90;;;;;;5073884;28;20247;-60
2024/03/09 07:29:02;;;;;;;5.27;4.83;;;8.20;99.90;;;;;;5089977;28;20247;-61
2024/03/09 07:31:29;;;;;;;5.03;4.63;;;7.80;99.90;;;;;;5065961;28;20609;-61
2024/03/09 07:33:56;;;;;;;5.70;4.47;;;7.80;99.90;;;;;;5068163;28;20202;-60
2024/03/09 07:36:24;;;;;;;7.97;5.50;;;7.60;99.90;;;;;;5069424;28;20687;-63
2024/03/09 07:38:51;;;;;;;5.30;3.90;;;7.70;99.90;;;;;;5071631;28;20203;-62
2024/03/09 07:41:20;;;;;;;5.53;4.83;;;7.80;99.90;;;;;;5070012;28;20200;-62
2024/03/09 07:43:47;;;;;;;5.03;4.50;;;7.80;99.90;;;;;;5064490;28;20219;-61
2024/03/09 07:46:15;;;;;;;5.20;4.27;;;8.00;99.90;;;;;;5067458;28;20217;-63
2024/03/09 07:48:42;;;;;;;4.90;3.77;;;8.30;99.90;;;;;;5069017;28;20205;-62
2024/03/09 07:51:10;;;;;;;3.97;3.57;;;8.20;99.90;;;;;;5071249;28;20275;-63
2024/03/09 07:53:38;;;;;;;4.17;3.77;;;8.60;99.90;;;;;;5072047;28;20222;-64
2024/03/09 07:56:06;;;;;;;5.53;3.17;;;;;;;;;;5067392;28;20757;-64
2024/03/09 07:58:34;;;;;;;3.50;2.87;;;9.70;99.90;;;;;;5067597;28;20252;-65
2024/03/09 08:01:05;;;;;;;2.90;2.70;;;10.00;99.90;;;;;;5063332;28;20294;-65
2024/03/09 08:03:33;;;;;;;4.37;3.23;;;;;;;;;;5070473;28;20238;-64
2024/03/09 08:06:00;;;;;;;3.07;2.93;;;10.70;99.90;;;;;;5065949;28;20214;-62
2024/03/09 08:08:27;;;;;;;4.93;3.00;;;11.70;99.90;;;;;;5068851;28;20212;-62
2024/03/09 08:10:57;;;;;;;4.10;1.50;;;;;;;;;;5063501;28;20265;-62
2024/03/09 08:13:25;;;;;;;2.00;1.90;;;;;;;;;;5059880;28;20210;-62
2024/03/09 08:15:53;;;;;;;3.37;3.07;;;;;;;;;;5067001;28;20218;-63
2024/03/09 08:18:21;;;;;;;5.93;4.07;;;;;;;;;;5069800;28;20292;-63
2024/03/09 08:20:50;;;;;;;4.07;3.70;;;;;;;;;;5067690;28;20227;-63
2024/03/09 08:23:17;;;;;;;5.20;4.70;;;13.40;99.90;;;;;;5068741;28;20219;-62
2024/03/09 08:25:44;;;;;;;5.70;5.17;;;13.50;99.90;;;;;;5066921;28;20218;-62
2024/03/09 08:28:14;;;;;;;6.07;5.47;;;13.50;99.90;;;;;;5077220;28;20663;-62
2024/03/09 08:30:42;;;;;;;5.33;4.93;;;;;;;;;;5069734;28;20319;-61
2024/03/09 08:33:09;;;;;;;6.70;6.10;;;13.40;99.90;;;;;;5069260;28;20642;-62
2024/03/09 08:35:36;;;;;;;11.20;7.93;;;;;;;;;;5074518;28;20207;-63
2024/03/09 08:38:04;;;;;;;14.13;8.13;;;12.70;99.90;;;;;;5068107;28;20259;-61
2024/03/09 08:40:31;;;;;;;8.23;7.40;;;;;;;;;;5070870;28;21209;-63
2024/03/09 08:42:59;;;;;;;12.23;9.10;;;;;;;;;;5069975;28;20606;-62
2024/03/09 08:45:28;;;;;;;10.47;8.10;;;;;;;;;;5057714;28;21088;-63
2024/03/09 08:47:56;;;;;;;15.50;9.70;;;;;;;;;;5042698;28;20274;-61
2024/03/09 08:50:25;;;;;;;13.30;9.43;;;;;;;;;;5057543;28;20523;-58
2024/03/09 08:52:53;;;;;;;11.77;8.83;;;;;;;;;;5069151;28;20278;-61
2024/03/09 08:55:20;;;;;;;11.73;9.37;;;13.10;99.90;;;;;;5069185;28;20197;-61
2024/03/09 08:57:48;;;;;;;13.10;10.20;;;13.50;99.90;;;;;;5063843;28;20667;-60
2024/03/09 09:00:19;;;;;;;10.47;9.00;;;;;;;;;;5081099;28;20255;-61
2024/03/09 09:02:48;;;;;;;12.30;9.73;;;;;;;;;;5079905;28;20681;-60
2024/03/09 09:05:15;;;;;;;10.30;9.00;;;;;;;;;;5069310;28;20197;-61
2024/03/09 09:07:46;;;;;;;11.83;10.03;;;16.30;99.90;;;;;;5070573;28;20247;-62
2024/03/09 09:10:14;;;;;;;12.80;10.23;;;;;;;;;;5071237;28;20217;-62
2024/03/09 09:12:42;;;;;;;13.13;11.83;;;;;;;;;;5068074;28;20311;-62
2024/03/09 09:15:11;;;;;;;11.83;10.60;;;;;;;;;;5070081;28;20203;-62
2024/03/09 09:17:40;;;;;;;11.67;10.47;;;;;;;;;;5071407;28;20359;-62
2024/03/09 09:20:11;;;;;;;10.97;9.87;;;;;;;;;;5063447;28;20217;-60
2024/03/09 09:22:42;;;;;;;11.50;10.30;;;;;;;;;;5078921;28;20197;-63
2024/03/09 09:25:12;;;;;;;8.97;8.10;;;;;;;;;;5090056;28;20718;-64
2024/03/09 09:27:39;;;;;;;11.30;10.20;;;;;;;;;;5073092;28;20653;-61
2024/03/09 09:30:08;;;;;;;10.53;9.30;;;;;;;;;;5066775;28;20700;-62
2024/03/09 09:32:35;;;;;;;10.43;8.30;;;;;;;;;;5070377;28;20197;-63
2024/03/09 09:35:03;;;;;;;11.33;9.13;;;;;;;;;;5066140;28;20199;-62
2024/03/09 09:37:32;;;;;;;12.47;10.80;;;;;;;;;;5068037;28;20252;-61
2024/03/09 09:40:01;;;;;;;11.07;10.03;;;;;;;;;;5070650;28;20228;-63
2024/03/09 09:42:30;;;;;;;10.83;9.43;;;;;;;;;;5071312;28;20270;-62
2024/03/09 09:44:58;;;;;;;12.37;9.77;;;;;;;;;;5064906;28;20688;-63
2024/03/09 09:47:27;;;;;;;12.43;10.23;;;;;;;;;;5069067;28;20374;-62
2024/03/09 09:49:55;;;;;;;12.30;11.00;;;;;;;;;;5072386;28;20255;-64
2024/03/09 09:52:23;;;;;;;11.77;10.13;;;;;;;;;;5074691;28;20626;-62
2024/03/09 09:54:53;;;;;;;12.20;10.40;;;;;;;;;;5072296;28;20288;-63
2024/03/09 09:57:20;;;;;;;11.70;10.53;;;;;;;;;;5073687;28;20296;-62
2024/03/09 09:59:48;;;;;;;12.70;10.90;;;;;;;;;;5067240;28;20216;-62
2024/03/09 10:02:16;;;;;;;12.13;10.93;;;;;;;;;;5074406;28;20684;-62
2024/03/09 10:04:44;;;;;;;14.23;11.67;;;;;;;;;;5071415;28;20217;-61
2024/03/09 10:07:12;;;;;;;13.47;11.40;;;;;;;;;;5069658;28;20661;-59
2024/03/09 10:09:39;;;;;;;12.47;11.27;;;;;;;;;;5074027;28;20596;-60
2024/03/09 10:12:19;;;;;;;13.40;11.60;;;;;;;;;;5073947;28;20668;-60
2024/03/09 10:14:46;;;;;;;13.90;12.38;;;;;;;;;;5072066;28;20430;-59
2024/03/09 10:17:15;;;;;;;12.83;11.47;;;;;;;;;;5063011;28;20413;-55
2024/03/09 10:19:43;;;;;;;13.37;12.07;;;;;;;;;;5071105;28;20216;-56
2024/03/09 10:22:11;;;;;;;10.30;9.20;;;;;;;;;;5072487;28;20198;-56
2024/03/09 10:24:52;;;;;;;11.82;10.40;;;21.70;99.90;;;;;;5071178;28;20542;-63
2024/03/09 10:27:25;;;;;;;11.43;10.30;;;;;;;;;;5071131;28;20205;-64
2024/03/09 10:30:02;;;;;;;12.20;10.90;;;;;;;;;;5067636;28;20283;-65
2024/03/09 10:32:31;;;;;;;12.57;9.47;;;;;;;;;;5070564;28;20212;-64
2024/03/09 10:35:03;;;;;;;10.60;9.60;;;;;;;;;;5052965;28;20206;-64
2024/03/09 10:37:32;;;;;;;9.50;7.50;;;;;;;;;;5067313;28;20580;-64
2024/03/09 10:40:01;;;;;;;6.97;6.37;;;;;;;;;;5065260;28;20225;-65
2024/03/09 10:42:32;;;;;;;16.03;8.03;;;22.00;99.90;;;;;;5073796;28;20618;-63
2024/03/09 10:45:02;;;;;;;5.80;5.30;;;21.90;99.90;;;;;;5072840;28;20262;-64
2024/03/09 10:47:31;;;;;;;4.10;3.83;;;21.20;98.20;;;;;;5066159;28;20600;-62
2024/03/09 10:50:04;;;;;;;4.07;3.63;;;21.10;96.90;;;;;;5073487;28;20231;-62
2024/03/09 10:52:32;;;;;;;2.00;1.90;;;;;;;;;;5073360;28;20204;-62
2024/03/09 10:55:06;;;;;;;1.50;1.40;;;21.30;94.50;;;;;;5052775;28;20277;-64
2024/03/09 10:57:42;;;;;;;3.30;3.10;;;21.20;94.00;;;;;;5066875;28;20253;-62
2024/03/09 11:00:12;;;;;;;2.47;2.37;;;20.90;95.70;;;;;;5073175;28;20304;-63
2024/03/09 11:02:46;;;;;;;3.00;2.80;;;20.40;94.10;;;;;;5072170;28;20240;-58
2024/03/09 11:05:21;;;;;;;4.17;2.60;;;20.10;93.30;;;;;;5077175;28;20213;-58
2024/03/09 11:07:50;;;;;;;2.93;2.73;;;19.80;92.90;;;;;;5073060;28;20236;-58
2024/03/09 11:10:20;;;;;;;3.83;3.30;;;19.30;93.50;;;;;;5067090;28;20442;-58
2024/03/09 11:12:50;;;;;;;2.40;2.23;;;18.70;92.70;;;;;;5073035;28;20197;-58
2024/03/09 11:15:21;;;;;;;2.07;1.97;;;18.50;93.70;;;;;;5070338;28;20631;-58
2024/03/09 11:17:49;;;;;;;2.83;2.73;;;18.60;93.30;;;;;;5063197;28;20201;-58
2024/03/09 11:20:22;;;;;;;2.67;2.47;;;18.40;93.70;;;;;;5072926;28;20217;-58
2024/03/09 11:22:50;;;;;;;2.37;2.00;;;18.30;96.50;;;;;;5072778;28;20212;-58
2024/03/09 11:25:37;;;;;;;1.70;1.60;;;18.20;93.10;;;;;;5071393;28;20704;-58
2024/03/09 11:28:06;;;;;;;1.53;1.43;;;18.20;92.80;;;;;;5065547;28;20197;-58
2024/03/09 11:30:34;;;;;;;1.00;0.90;;;18.20;94.50;;;;;;5072424;28;20217;-58
2024/03/09 11:33:03;;;;;;;1.70;1.00;;;18.00;91.10;;;;;;5072376;28;20237;-58
2024/03/09 11:35:32;;;;;;;0.47;0.47;;;17.70;91.50;;;;;;5052281;28;20800;-59
2024/03/09 11:38:09;;;;;;;2.20;1.20;;;17.60;89.20;;;;;;5069112;28;20208;-58
2024/03/09 11:40:36;;;;;;;0.30;0.30;;;;;;;;;;5072538;28;20307;-58
2024/03/09 11:43:09;;;;;;;1.87;0.30;;;;;;;;;;5071830;28;20201;-58
2024/03/09 11:45:39;;;;;;;0.30;0.30;;;;;;;;;;5069105;28;20577;-58
2024/03/09 11:48:08;;;;;;;1.77;0.10;;;;;;;;;;5065371;28;20276;-58
2024/03/09 11:50:39;;;;;;;0.03;0.03;;;;;;;;;;5068018;28;20228;-58
2024/03/09 11:53:10;;;;;;;0.00;0.00;;;;;;;;;;5062256;28;20262;-60
2024/03/09 11:55:41;;;;;;;0.07;0.00;;;;;;;;;;5060387;28;20193;-62
2024/03/09 11:58:12;;;;;;;1.50;0.00;;;;;;;;;;5068061;28;20693;-60
2024/03/09 12:00:41;;;;;;;4.03;0.10;;;;;;;;;;5060352;28;20300;-63
2024/03/09 12:03:15;;;;;;;0.03;0.00;;;18.00;93.40;;;;;;5072068;28;20197;-63
2024/03/09 12:05:43;;;;;;;0.20;0.10;;;;;;;;;;5069596;28;20635;-62
2024/03/09 12:08:10;;;;;;;0.00;0.00;;;;;;;;;;5057949;28;20200;-64
2024/03/09 12:10:38;;;;;;;0.10;0.00;;;17.60;93.10;;;;;;5079408;28;20220;-64
2024/03/09 12:13:06;;;;;;;0.10;0.10;;;17.60;93.00;;;;;;5066990;28;20300;-64
2024/03/09 12:15:35;;;;;;;0.10;0.10;;;17.50;91.90;;;;;;5070971;28;20193;-64
2024/03/09 12:18:04;;;;;;;0.87;0.20;;;17.40;92.00;;;;;;5083405;28;20556;-62
2024/03/09 12:20:32;;;;;;;0.10;0.10;;;17.40;92.40;;;;;;5071657;28;20651;-65
2024/03/09 12:22:59;;;;;;;0.40;0.20;;;17.40;91.60;;;;;;5072171;28;20206;-64
2024/03/09 12:25:27;;;;;;;0.30;0.30;;;17.60;91.80;;;;;;5063973;28;20217;-64
2024/03/09 12:27:54;;;;;;;0.50;0.20;;;17.60;92.50;;;;;;5069036;28;20204;-62
2024/03/09 12:30:23;;;;;;;0.80;0.27;;;17.70;90.60;;;;;;5068029;28;20217;-64
2024/03/09 12:32:52;;;;;;;0.77;0.40;;;17.70;91.10;;;;;;5071456;28;20681;-64
2024/03/09 12:35:19;;;;;;;0.10;0.10;;;17.60;92.30;;;;;;5069089;28;20193;-64
2024/03/09 12:37:47;;;;;;;0.77;0.10;;;17.70;92.30;;;;;;5069333;28;20247;-64
2024/03/09 12:40:18;;;;;;;0.20;0.10;;;17.90;86.60;;;;;;5063534;28;20820;-63
2024/03/09 12:42:46;;;;;;;0.20;0.20;;;17.90;80.80;;;;;;5079121;28;20204;-64
2024/03/09 12:45:20;;;;;;;0.10;0.00;;;17.80;88.30;;;;;;5073357;28;20221;-64
2024/03/09 12:47:54;;;;;;;1.73;1.20;;;17.60;86.80;;;;;;5075330;28;20721;-65
2024/03/09 12:50:23;;;;;;;0.80;0.80;;;17.50;84.10;;;;;;5070760;28;20228;-63
2024/03/09 12:52:51;;;;;;;0.83;0.03;;;17.60;84.40;;;;;;5078643;28;20209;-62
2024/03/09 12:55:19;;;;;;;0.10;0.10;;;17.60;87.20;;;;;;5070464;28;20201;-62
2024/03/09 12:57:50;;;;;;;0.10;0.10;;;17.60;88.40;;;;;;5063835;28;20202;-61
2024/03/09 13:00:22;;;;;;;1.13;0.90;;;17.50;86.50;;;;;;5091141;28;20303;-64
2024/03/09 13:02:50;;;;;;;3.20;2.97;;;17.70;86.10;;;;;;5071354;28;20209;-62
2024/03/09 13:05:19;;;;;;;0.07;0.00;;;17.80;90.20;;;;;;5090225;28;20216;-64
2024/03/09 13:07:51;;;;;;;4.90;0.10;;;17.60;88.30;;;;;;5091087;28;20644;-64
2024/03/09 13:10:24;;;;;;;0.70;0.10;;;17.50;85.50;;;;;;5078304;28;20259;-65
2024/03/09 13:12:52;;;;;;;1.10;0.00;;;17.30;86.50;;;;;;5070860;28;20730;-65
2024/03/09 13:15:20;;;;;;;0.00;0.00;;;17.30;84.50;;;;;;5072524;28;20237;-65